sensor_id;sensor_type;location;lat;lon;timestamp;temperature;humidity
42905;DHT22;28550;51.228;4.528;2022-10-15T03:10:17;14.20;99.80
42905;DHT22;28550;51.228;4.528;2022-10-15T03:12:45;14.10;98.30
42905;DHT22;28550;51.228;4.528;2022-10-15T03:15:10;14.20;99.40
42905;DHT22;28550;51.228;4.528;2022-10-15T03:17:36;14.30;97.70
42905;DHT22;28550;51.228;4.528;2022-10-15T03:20:02;14.20;98.20
42905;DHT22;28550;51.228;4.528;2022-10-15T03:22:31;14.20;99.50
42905;DHT22;28550;51.228;4.528;2022-10-15T03:24:59;14.20;99.90
42905;DHT22;28550;51.228;4.528;2022-10-15T03:27:25;14.30;98.10
42905;DHT22;28550;51.228;4.528;2022-10-15T03:29:54;14.20;98.60
42905;DHT22;28550;51.228;4.528;2022-10-15T03:32:22;14.20;99.90
42905;DHT22;28550;51.228;4.528;2022-10-15T03:38:11;14.30;99.70
42905;DHT22;28550;51.228;4.528;2022-10-15T03:40:37;14.40;98.80
42905;DHT22;28550;51.228;4.528;2022-10-15T03:43:02;14.50;97.90
42905;DHT22;28550;51.228;4.528;2022-10-15T03:45:28;14.50;98.00
42905;DHT22;28550;51.228;4.528;2022-10-15T03:47:54;14.40;97.80
42905;DHT22;28550;51.228;4.528;2022-10-15T03:50:22;14.30;98.50
42905;DHT22;28550;51.228;4.528;2022-10-15T03:52:48;14.30;98.80
42905;DHT22;28550;51.228;4.528;2022-10-15T03:55:31;14.30;99.90
42905;DHT22;28550;51.228;4.528;2022-10-15T03:57:56;14.40;99.90
42905;DHT22;28550;51.228;4.528;2022-10-15T04:00:22;14.20;98.60
42905;DHT22;28550;51.228;4.528;2022-10-15T04:02:48;14.20;98.60
42905;DHT22;28550;51.228;4.528;2022-10-15T04:05:13;14.00;98.30
42905;DHT22;28550;51.228;4.528;2022-10-15T04:07:39;14.00;98.20
42905;DHT22;28550;51.228;4.528;2022-10-15T04:10:08;14.00;98.30
42905;DHT22;28550;51.228;4.528;2022-10-15T04:12:33;14.00;98.70
42905;DHT22;28550;51.228;4.528;2022-10-15T04:14:59;13.90;99.00
42905;DHT22;28550;51.228;4.528;2022-10-15T04:17:34;14.00;99.10
42905;DHT22;28550;51.228;4.528;2022-10-15T04:19:59;13.90;99.60
42905;DHT22;28550;51.228;4.528;2022-10-15T04:22:25;14.10;99.40
42905;DHT22;28550;51.228;4.528;2022-10-15T04:24:51;14.10;98.10
42905;DHT22;28550;51.228;4.528;2022-10-15T04:27:16;14.00;98.30
42905;DHT22;28550;51.228;4.528;2022-10-15T04:29:42;13.80;98.50
42905;DHT22;28550;51.228;4.528;2022-10-15T04:35:20;13.90;99.90
42905;DHT22;28550;51.228;4.528;2022-10-15T04:37:45;13.80;98.30
42905;DHT22;28550;51.228;4.528;2022-10-15T04:40:11;13.80;98.60
42905;DHT22;28550;51.228;4.528;2022-10-15T04:42:37;13.70;99.90
42905;DHT22;28550;51.228;4.528;2022-10-15T04:45:05;13.70;99.90
42905;DHT22;28550;51.228;4.528;2022-10-15T04:47:33;13.60;99.90
42905;DHT22;28550;51.228;4.528;2022-10-15T04:49:59;13.60;99.90
42905;DHT22;28550;51.228;4.528;2022-10-15T04:52:25;13.70;99.30
42905;DHT22;28550;51.228;4.528;2022-10-15T04:54:53;13.60;99.90
42905;DHT22;28550;51.228;4.528;2022-10-15T04:57:18;13.70;99.90
42905;DHT22;28550;51.228;4.528;2022-10-15T05:02:47;13.70;99.90
42905;DHT22;28550;51.228;4.528;2022-10-15T05:05:13;13.80;99.90
42905;DHT22;28550;51.228;4.528;2022-10-15T05:07:38;13.80;99.80
42905;DHT22;28550;51.228;4.528;2022-10-15T05:10:09;13.80;99.60
42905;DHT22;28550;51.228;4.528;2022-10-15T05:12:34;13.90;99.90
42905;DHT22;28550;51.228;4.528;2022-10-15T05:15:00;14.10;99.10
42905;DHT22;28550;51.228;4.528;2022-10-15T05:17:26;14.00;98.90
42905;DHT22;28550;51.228;4.528;2022-10-15T05:19:51;14.10;99.00
42905;DHT22;28550;51.228;4.528;2022-10-15T05:22:17;14.00;98.10
42905;DHT22;28550;51.228;4.528;2022-10-15T05:24:43;14.10;97.90
42905;DHT22;28550;51.228;4.528;2022-10-15T05:29:59;14.10;99.90
42905;DHT22;28550;51.228;4.528;2022-10-15T05:32:24;14.10;99.90
42905;DHT22;28550;51.228;4.528;2022-10-15T05:34:50;14.00;98.40
42905;DHT22;28550;51.228;4.528;2022-10-15T05:37:16;14.00;98.60
42905;DHT22;28550;51.228;4.528;2022-10-15T05:39:41;13.90;99.30
42905;DHT22;28550;51.228;4.528;2022-10-15T05:42:09;13.80;99.50
42905;DHT22;28550;51.228;4.528;2022-10-15T05:44:35;13.90;99.70
42905;DHT22;28550;51.228;4.528;2022-10-15T05:47:00;13.90;99.10
42905;DHT22;28550;51.228;4.528;2022-10-15T05:49:28;13.80;99.80
42905;DHT22;28550;51.228;4.528;2022-10-15T05:51:55;13.80;99.90
42905;DHT22;28550;51.228;4.528;2022-10-15T05:54:20;13.70;99.90
42905;DHT22;28550;51.228;4.528;2022-10-15T05:56:46;13.70;99.80
42905;DHT22;28550;51.228;4.528;2022-10-15T05:59:13;13.70;99.90
42905;DHT22;28550;51.228;4.528;2022-10-15T06:01:38;13.70;99.90
42905;DHT22;28550;51.228;4.528;2022-10-15T06:04:04;13.60;99.90
42905;DHT22;28550;51.228;4.528;2022-10-15T06:06:29;13.50;99.90
42905;DHT22;28550;51.228;4.528;2022-10-15T06:08:57;13.50;99.90
42905;DHT22;28550;51.228;4.528;2022-10-15T06:11:22;13.50;99.90
42905;DHT22;28550;51.228;4.528;2022-10-15T06:13:49;13.40;99.90
42905;DHT22;28550;51.228;4.528;2022-10-15T06:16:20;13.50;99.90
42905;DHT22;28550;51.228;4.528;2022-10-15T06:18:45;13.60;99.90
42905;DHT22;28550;51.228;4.528;2022-10-15T06:21:13;13.60;99.90
42905;DHT22;28550;51.228;4.528;2022-10-15T06:23:39;13.60;99.90
42905;DHT22;28550;51.228;4.528;2022-10-15T06:26:05;13.60;99.90
42905;DHT22;28550;51.228;4.528;2022-10-15T06:28:31;13.60;99.90
42905;DHT22;28550;51.228;4.528;2022-10-15T06:30:58;13.60;99.90
42905;DHT22;28550;51.228;4.528;2022-10-15T06:33:24;13.60;99.90
42905;DHT22;28550;51.228;4.528;2022-10-15T06:35:50;13.60;99.90
42905;DHT22;28550;51.228;4.528;2022-10-15T06:38:15;13.60;99.90
42905;DHT22;28550;51.228;4.528;2022-10-15T06:40:42;13.50;99.90
42905;DHT22;28550;51.228;4.528;2022-10-15T06:43:09;13.50;99.90
42905;DHT22;28550;51.228;4.528;2022-10-15T06:45:35;13.50;99.90
42905;DHT22;28550;51.228;4.528;2022-10-15T06:48:02;13.60;99.90
42905;DHT22;28550;51.228;4.528;2022-10-15T06:50:30;13.70;99.90
42905;DHT22;28550;51.228;4.528;2022-10-15T06:56:01;14.00;99.90
42905;DHT22;28550;51.228;4.528;2022-10-15T06:58:27;14.00;99.90
42905;DHT22;28550;51.228;4.528;2022-10-15T07:00:58;14.00;99.70
42905;DHT22;28550;51.228;4.528;2022-10-15T07:06:51;14.00;99.90
42905;DHT22;28550;51.228;4.528;2022-10-15T07:09:19;13.90;99.20
42905;DHT22;28550;51.228;4.528;2022-10-15T07:11:45;13.90;99.90
42905;DHT22;28550;51.228;4.528;2022-10-15T07:14:11;14.00;99.90
42905;DHT22;28550;51.228;4.528;2022-10-15T07:16:36;14.10;99.90
42905;DHT22;28550;51.228;4.528;2022-10-15T07:19:04;14.20;99.90
42905;DHT22;28550;51.228;4.528;2022-10-15T07:21:29;14.20;99.40
42905;DHT22;28550;51.228;4.528;2022-10-15T07:23:55;14.20;98.90
42905;DHT22;28550;51.228;4.528;2022-10-15T07:29:20;14.20;99.90
42905;DHT22;28550;51.228;4.528;2022-10-15T07:31:46;14.30;99.40
42905;DHT22;28550;51.228;4.528;2022-10-15T07:34:11;14.40;98.30
42905;DHT22;28550;51.228;4.528;2022-10-15T07:36:37;14.60;98.70
42905;DHT22;28550;51.228;4.528;2022-10-15T07:39:03;14.60;96.80
42905;DHT22;28550;51.228;4.528;2022-10-15T07:41:29;14.70;97.40
42905;DHT22;28550;51.228;4.528;2022-10-15T07:43:55;14.80;97.10
42905;DHT22;28550;51.228;4.528;2022-10-15T07:46:23;14.80;95.40
42905;DHT22;28550;51.228;4.528;2022-10-15T07:48:54;14.80;96.90
42905;DHT22;28550;51.228;4.528;2022-10-15T07:51:21;14.90;97.10
42905;DHT22;28550;51.228;4.528;2022-10-15T07:53:46;14.70;97.70
42905;DHT22;28550;51.228;4.528;2022-10-15T07:56:13;14.80;96.80
42905;DHT22;28550;51.228;4.528;2022-10-15T07:58:39;14.90;97.10
42905;DHT22;28550;51.228;4.528;2022-10-15T08:01:05;15.00;96.60
42905;DHT22;28550;51.228;4.528;2022-10-15T08:03:31;15.20;96.50
42905;DHT22;28550;51.228;4.528;2022-10-15T08:06:00;15.20;95.20
42905;DHT22;28550;51.228;4.528;2022-10-15T08:08:26;15.10;96.30
42905;DHT22;28550;51.228;4.528;2022-10-15T08:10:52;15.20;96.00
42905;DHT22;28550;51.228;4.528;2022-10-15T08:13:17;15.10;96.50
42905;DHT22;28550;51.228;4.528;2022-10-15T08:15:43;15.20;97.90
42905;DHT22;28550;51.228;4.528;2022-10-15T08:18:09;15.20;97.20
42905;DHT22;28550;51.228;4.528;2022-10-15T08:20:35;15.20;97.20
42905;DHT22;28550;51.228;4.528;2022-10-15T08:23:01;15.20;96.40
42905;DHT22;28550;51.228;4.528;2022-10-15T08:25:27;15.10;97.50
42905;DHT22;28550;51.228;4.528;2022-10-15T08:27:53;15.10;97.90
42905;DHT22;28550;51.228;4.528;2022-10-15T08:30:19;15.10;98.80
42905;DHT22;28550;51.228;4.528;2022-10-15T08:36:09;15.00;99.90
42905;DHT22;28550;51.228;4.528;2022-10-15T08:38:35;15.10;99.40
42905;DHT22;28550;51.228;4.528;2022-10-15T08:41:01;15.20;99.20
42905;DHT22;28550;51.228;4.528;2022-10-15T08:43:34;15.10;99.90
42905;DHT22;28550;51.228;4.528;2022-10-15T08:46:02;15.10;99.90
42905;DHT22;28550;51.228;4.528;2022-10-15T08:48:36;15.10;99.90
42905;DHT22;28550;51.228;4.528;2022-10-15T08:53:42;15.20;99.90
42905;DHT22;28550;51.228;4.528;2022-10-15T08:56:16;15.20;99.90
42905;DHT22;28550;51.228;4.528;2022-10-15T08:58:52;15.10;99.90
42905;DHT22;28550;51.228;4.528;2022-10-15T09:01:27;15.10;99.90
42905;DHT22;28550;51.228;4.528;2022-10-15T09:07:12;15.10;99.90
42905;DHT22;28550;51.228;4.528;2022-10-15T09:09:42;15.20;99.90
42905;DHT22;28550;51.228;4.528;2022-10-15T09:14:54;15.40;99.90
42905;DHT22;28550;51.228;4.528;2022-10-15T09:20:29;15.70;99.90
42905;DHT22;28550;51.228;4.528;2022-10-15T09:22:58;15.90;99.90
42905;DHT22;28550;51.228;4.528;2022-10-15T09:25:24;16.00;99.90
42905;DHT22;28550;51.228;4.528;2022-10-15T09:27:53;15.90;99.60
42905;DHT22;28550;51.228;4.528;2022-10-15T09:33:25;16.00;99.90
42905;DHT22;28550;51.228;4.528;2022-10-15T09:44:12;16.10;99.90
42905;DHT22;28550;51.228;4.528;2022-10-15T09:46:43;16.30;99.50
42905;DHT22;28550;51.228;4.528;2022-10-15T09:49:11;16.30;99.90
42905;DHT22;28550;51.228;4.528;2022-10-15T09:51:45;16.50;99.20
42905;DHT22;28550;51.228;4.528;2022-10-15T09:56:47;16.80;96.50
42905;DHT22;28550;51.228;4.528;2022-10-15T09:59:19;16.90;96.90
42905;DHT22;28550;51.228;4.528;2022-10-15T10:02:16;16.90;97.40
42905;DHT22;28550;51.228;4.528;2022-10-15T10:04:35;17.10;97.10
42905;DHT22;28550;51.228;4.528;2022-10-15T10:07:03;17.30;94.50
42905;DHT22;28550;51.228;4.528;2022-10-15T10:12:01;17.40;94.10
42905;DHT22;28550;51.228;4.528;2022-10-15T10:14:28;17.40;95.40
42905;DHT22;28550;51.228;4.528;2022-10-15T10:19:29;17.60;94.80
42905;DHT22;28550;51.228;4.528;2022-10-15T10:22:04;17.70;92.30
42905;DHT22;28550;51.228;4.528;2022-10-15T10:24:30;17.90;92.00
42905;DHT22;28550;51.228;4.528;2022-10-15T10:26:58;17.80;90.90
42905;DHT22;28550;51.228;4.528;2022-10-15T10:29:27;17.80;93.50
42905;DHT22;28550;51.228;4.528;2022-10-15T10:31:54;17.90;92.10
42905;DHT22;28550;51.228;4.528;2022-10-15T10:34:26;17.90;91.80
42905;DHT22;28550;51.228;4.528;2022-10-15T10:36:54;17.90;92.70
42905;DHT22;28550;51.228;4.528;2022-10-15T10:39:27;17.80;93.00
42905;DHT22;28550;51.228;4.528;2022-10-15T10:41:57;17.90;94.20
42905;DHT22;28550;51.228;4.528;2022-10-15T10:44:33;17.90;94.20
42905;DHT22;28550;51.228;4.528;2022-10-15T10:49:49;18.10;93.70
42905;DHT22;28550;51.228;4.528;2022-10-15T10:54:52;18.20;94.20
42905;DHT22;28550;51.228;4.528;2022-10-15T10:57:19;18.20;95.10
42905;DHT22;28550;51.228;4.528;2022-10-15T10:59:52;18.30;94.00
42905;DHT22;28550;51.228;4.528;2022-10-15T11:02:18;18.40;93.10
42905;DHT22;28550;51.228;4.528;2022-10-15T11:04:43;18.40;92.00
42905;DHT22;28550;51.228;4.528;2022-10-15T11:07:19;18.40;94.00
42905;DHT22;28550;51.228;4.528;2022-10-15T11:12:57;18.60;93.90
42905;DHT22;28550;51.228;4.528;2022-10-15T11:20:48;18.90;91.70
42905;DHT22;28550;51.228;4.528;2022-10-15T11:23:28;19.50;90.90
42905;DHT22;28550;51.228;4.528;2022-10-15T11:28:53;20.30;66.60
42905;DHT22;28550;51.228;4.528;2022-10-15T11:31:50;20.50;27.10
42905;DHT22;28550;51.228;4.528;2022-10-15T11:34:25;20.30;38.50
42905;DHT22;28550;51.228;4.528;2022-10-15T11:37:06;20.10;44.20
42905;DHT22;28550;51.228;4.528;2022-10-15T11:42:23;20.10;49.20
42905;DHT22;28550;51.228;4.528;2022-10-15T11:45:23;20.20;46.00
42905;DHT22;28550;51.228;4.528;2022-10-15T11:50:50;20.90;30.10
42905;DHT22;28550;51.228;4.528;2022-10-15T11:56:10;21.20;1.00
42905;DHT22;28550;51.228;4.528;2022-10-15T11:58:47;21.40;1.00
42905;DHT22;28550;51.228;4.528;2022-10-15T12:03:52;22.30;1.00
42905;DHT22;28550;51.228;4.528;2022-10-15T12:06:33;23.10;99.90
42905;DHT22;28550;51.228;4.528;2022-10-15T12:09:03;23.60;99.90
42905;DHT22;28550;51.228;4.528;2022-10-15T12:14:43;23.70;1.00
42905;DHT22;28550;51.228;4.528;2022-10-15T12:17:19;23.90;1.00
42905;DHT22;28550;51.228;4.528;2022-10-15T12:19:50;23.10;99.90
42905;DHT22;28550;51.228;4.528;2022-10-15T12:22:43;22.70;99.90
42905;DHT22;28550;51.228;4.528;2022-10-15T12:31:04;24.80;1.00
42905;DHT22;28550;51.228;4.528;2022-10-15T12:36:16;23.60;99.90
42905;DHT22;28550;51.228;4.528;2022-10-15T12:38:58;23.40;59.10
42905;DHT22;28550;51.228;4.528;2022-10-15T12:46:58;22.70;1.00
42905;DHT22;28550;51.228;4.528;2022-10-15T12:51:59;22.50;1.00
42905;DHT22;28550;51.228;4.528;2022-10-15T13:00:26;22.70;1.00
42905;DHT22;28550;51.228;4.528;2022-10-15T13:02:48;22.40;99.90
42905;DHT22;28550;51.228;4.528;2022-10-15T13:05:36;22.10;99.90
42905;DHT22;28550;51.228;4.528;2022-10-15T13:08:10;21.50;65.70
42905;DHT22;28550;51.228;4.528;2022-10-15T13:10:45;21.30;34.20
42905;DHT22;28550;51.228;4.528;2022-10-15T13:13:15;21.10;3.10
42905;DHT22;28550;51.228;4.528;2022-10-15T13:15:50;21.80;1.00
42905;DHT22;28550;51.228;4.528;2022-10-15T13:18:17;22.30;99.90
42905;DHT22;28550;51.228;4.528;2022-10-15T13:20:45;22.00;99.90
42905;DHT22;28550;51.228;4.528;2022-10-15T13:23:48;21.50;14.50
42905;DHT22;28550;51.228;4.528;2022-10-15T13:29:24;21.10;1.00
42905;DHT22;28550;51.228;4.528;2022-10-15T13:32:00;20.90;1.00
42905;DHT22;28550;51.228;4.528;2022-10-15T13:34:44;22.00;99.90
42905;DHT22;28550;51.228;4.528;2022-10-15T13:37:26;21.80;99.90
42905;DHT22;28550;51.228;4.528;2022-10-15T13:40:00;21.60;99.90
42905;DHT22;28550;51.228;4.528;2022-10-15T13:42:32;21.40;99.90
42905;DHT22;28550;51.228;4.528;2022-10-15T13:45:03;21.60;99.90
42905;DHT22;28550;51.228;4.528;2022-10-15T13:47:36;22.20;1.00
42905;DHT22;28550;51.228;4.528;2022-10-15T13:50:27;22.40;99.90
42905;DHT22;28550;51.228;4.528;2022-10-15T13:53:10;22.50;99.90
42905;DHT22;28550;51.228;4.528;2022-10-15T13:55:43;22.30;99.90
42905;DHT22;28550;51.228;4.528;2022-10-15T14:01:16;22.50;99.90
42905;DHT22;28550;51.228;4.528;2022-10-15T14:06:24;22.30;1.00
42905;DHT22;28550;51.228;4.528;2022-10-15T14:08:51;22.20;1.00
42905;DHT22;28550;51.228;4.528;2022-10-15T14:11:22;22.80;1.00
42905;DHT22;28550;51.228;4.528;2022-10-15T14:13:52;23.70;1.00
42905;DHT22;28550;51.228;4.528;2022-10-15T14:19:09;24.20;99.90
42905;DHT22;28550;51.228;4.528;2022-10-15T14:21:41;23.80;99.90
42905;DHT22;28550;51.228;4.528;2022-10-15T14:26:40;22.20;99.90
42905;DHT22;28550;51.228;4.528;2022-10-15T14:32:23;21.80;99.90
42905;DHT22;28550;51.228;4.528;2022-10-15T14:35:31;22.20;99.90
42905;DHT22;28550;51.228;4.528;2022-10-15T14:41:05;22.20;99.90
42905;DHT22;28550;51.228;4.528;2022-10-15T14:59:48;21.10;1.00
42905;DHT22;28550;51.228;4.528;2022-10-15T15:02:36;21.30;99.90
42905;DHT22;28550;51.228;4.528;2022-10-15T15:07:39;21.40;1.00
42905;DHT22;28550;51.228;4.528;2022-10-15T15:13:05;21.30;1.00
42905;DHT22;28550;51.228;4.528;2022-10-15T15:15:36;21.60;99.90
42905;DHT22;28550;51.228;4.528;2022-10-15T15:18:27;21.60;99.90
42905;DHT22;28550;51.228;4.528;2022-10-15T15:20:56;21.00;99.90
42905;DHT22;28550;51.228;4.528;2022-10-15T15:23:23;20.70;99.90
42905;DHT22;28550;51.228;4.528;2022-10-15T15:26:15;20.40;1.00
42905;DHT22;28550;51.228;4.528;2022-10-15T15:28:45;20.20;1.00
42905;DHT22;28550;51.228;4.528;2022-10-15T15:31:14;20.30;1.00
42905;DHT22;28550;51.228;4.528;2022-10-15T15:34:07;20.20;1.00
42905;DHT22;28550;51.228;4.528;2022-10-15T15:43:01;19.70;1.00
42905;DHT22;28550;51.228;4.528;2022-10-15T15:48:30;19.80;1.00
42905;DHT22;28550;51.228;4.528;2022-10-15T15:53:50;19.40;39.80
42905;DHT22;28550;51.228;4.528;2022-10-15T15:59:18;19.10;99.90
42905;DHT22;28550;51.228;4.528;2022-10-15T16:05:07;18.50;99.90
42905;DHT22;28550;51.228;4.528;2022-10-15T16:07:58;18.40;1.00
42905;DHT22;28550;51.228;4.528;2022-10-15T16:10:30;18.30;99.90
42905;DHT22;28550;51.228;4.528;2022-10-15T17:10:07;16.50;99.90
42905;DHT22;28550;51.228;4.528;2022-10-15T17:15:41;16.40;99.90
42905;DHT22;28550;51.228;4.528;2022-10-15T17:18:21;16.30;99.90
42905;DHT22;28550;51.228;4.528;2022-10-15T17:23:52;16.30;99.90
42905;DHT22;28550;51.228;4.528;2022-10-15T17:26:26;16.20;99.90
42905;DHT22;28550;51.228;4.528;2022-10-15T17:29:14;16.30;99.90
42905;DHT22;28550;51.228;4.528;2022-10-15T17:32:14;16.30;99.90
42905;DHT22;28550;51.228;4.528;2022-10-15T17:35:07;16.30;99.90
42905;DHT22;28550;51.228;4.528;2022-10-15T17:37:55;16.00;99.90
42905;DHT22;28550;51.228;4.528;2022-10-15T17:43:37;16.00;1.00
42905;DHT22;28550;51.228;4.528;2022-10-15T17:46:39;16.00;1.00
42905;DHT22;28550;51.228;4.528;2022-10-15T17:49:09;15.90;1.00
42905;DHT22;28550;51.228;4.528;2022-10-15T17:51:47;15.90;1.00
42905;DHT22;28550;51.228;4.528;2022-10-15T17:54:25;15.90;1.00
42905;DHT22;28550;51.228;4.528;2022-10-15T17:56:57;15.70;1.00
42905;DHT22;28550;51.228;4.528;2022-10-15T17:59:24;15.70;1.00
42905;DHT22;28550;51.228;4.528;2022-10-15T18:02:03;15.70;1.00
42905;DHT22;28550;51.228;4.528;2022-10-15T18:04:41;15.70;1.00
42905;DHT22;28550;51.228;4.528;2022-10-15T18:07:07;15.70;1.00
42905;DHT22;28550;51.228;4.528;2022-10-15T18:12:04;15.40;1.00
42905;DHT22;28550;51.228;4.528;2022-10-15T18:14:37;15.40;1.00
42905;DHT22;28550;51.228;4.528;2022-10-15T18:17:24;15.50;1.00
42905;DHT22;28550;51.228;4.528;2022-10-15T18:19:57;15.40;1.00
42905;DHT22;28550;51.228;4.528;2022-10-15T18:22:25;15.50;1.00
42905;DHT22;28550;51.228;4.528;2022-10-15T18:24:56;15.40;1.00
42905;DHT22;28550;51.228;4.528;2022-10-15T18:27:28;15.40;1.00
42905;DHT22;28550;51.228;4.528;2022-10-15T18:30:11;15.50;1.00
42905;DHT22;28550;51.228;4.528;2022-10-15T18:32:48;15.50;1.00
42905;DHT22;28550;51.228;4.528;2022-10-15T18:41:56;15.20;1.00
42905;DHT22;28550;51.228;4.528;2022-10-15T18:44:23;15.20;1.00
42905;DHT22;28550;51.228;4.528;2022-10-15T18:47:11;15.20;1.00
42905;DHT22;28550;51.228;4.528;2022-10-15T18:49:59;15.20;1.00
42905;DHT22;28550;51.228;4.528;2022-10-15T18:55:19;15.20;1.00
42905;DHT22;28550;51.228;4.528;2022-10-15T18:57:48;15.20;1.00
42905;DHT22;28550;51.228;4.528;2022-10-15T19:03:07;15.10;1.00
42905;DHT22;28550;51.228;4.528;2022-10-15T19:05:36;15.10;1.00
42905;DHT22;28550;51.228;4.528;2022-10-15T19:11:06;15.10;1.00
42905;DHT22;28550;51.228;4.528;2022-10-15T19:19:21;15.10;1.00
42905;DHT22;28550;51.228;4.528;2022-10-15T19:21:48;15.00;1.00
42905;DHT22;28550;51.228;4.528;2022-10-15T19:24:19;14.90;1.00
42905;DHT22;28550;51.228;4.528;2022-10-15T19:27:05;14.90;1.00
42905;DHT22;28550;51.228;4.528;2022-10-15T19:29:38;14.80;1.00
42905;DHT22;28550;51.228;4.528;2022-10-15T19:32:06;14.70;1.00
42905;DHT22;28550;51.228;4.528;2022-10-15T19:34:43;14.60;1.00
42905;DHT22;28550;51.228;4.528;2022-10-15T19:37:19;14.50;1.00
42905;DHT22;28550;51.228;4.528;2022-10-15T19:39:55;14.50;1.00
42905;DHT22;28550;51.228;4.528;2022-10-15T19:42:29;14.50;1.00
42905;DHT22;28550;51.228;4.528;2022-10-15T19:45:08;14.60;1.00
42905;DHT22;28550;51.228;4.528;2022-10-15T19:47:51;14.50;1.00
42905;DHT22;28550;51.228;4.528;2022-10-15T20:10:53;14.30;1.00
42905;DHT22;28550;51.228;4.528;2022-10-15T20:13:19;14.30;3.10
42905;DHT22;28550;51.228;4.528;2022-10-15T20:15:51;14.20;14.50
42905;DHT22;28550;51.228;4.528;2022-10-15T20:18:20;14.10;19.40
42905;DHT22;28550;51.228;4.528;2022-10-15T20:24:06;14.10;20.50
42905;DHT22;28550;51.228;4.528;2022-10-15T20:26:32;14.00;22.00
42905;DHT22;28550;51.228;4.528;2022-10-15T20:32:15;13.90;27.40
42905;DHT22;28550;51.228;4.528;2022-10-15T20:35:04;13.90;34.60
42905;DHT22;28550;51.228;4.528;2022-10-15T20:37:57;13.80;34.60
42905;DHT22;28550;51.228;4.528;2022-10-15T20:43:57;13.70;30.50
42905;DHT22;28550;51.228;4.528;2022-10-15T20:46:48;13.70;28.30
42905;DHT22;28550;51.228;4.528;2022-10-15T20:49:18;13.70;28.00
42905;DHT22;28550;51.228;4.528;2022-10-15T20:51:45;13.70;27.70
42905;DHT22;28550;51.228;4.528;2022-10-15T20:54:16;13.70;28.90
42905;DHT22;28550;51.228;4.528;2022-10-15T20:56:49;13.60;32.10
42905;DHT22;28550;51.228;4.528;2022-10-15T20:59:17;13.70;29.80
42905;DHT22;28550;51.228;4.528;2022-10-15T21:01:47;13.70;26.00
42905;DHT22;28550;51.228;4.528;2022-10-15T21:04:16;13.90;25.50
42905;DHT22;28550;51.228;4.528;2022-10-15T21:06:54;13.90;22.50
42905;DHT22;28550;51.228;4.528;2022-10-15T21:09:28;13.80;28.10
42905;DHT22;28550;51.228;4.528;2022-10-15T21:12:05;13.80;28.30
42905;DHT22;28550;51.228;4.528;2022-10-15T21:14:41;13.80;28.50
42905;DHT22;28550;51.228;4.528;2022-10-15T21:17:09;13.70;35.20
42905;DHT22;28550;51.228;4.528;2022-10-15T21:22:25;13.50;43.50
42905;DHT22;28550;51.228;4.528;2022-10-15T21:25:01;13.50;49.20
42905;DHT22;28550;51.228;4.528;2022-10-15T21:27:27;13.30;52.70
42905;DHT22;28550;51.228;4.528;2022-10-15T21:30:00;13.30;57.00
42905;DHT22;28550;51.228;4.528;2022-10-15T21:32:29;13.20;58.80
42905;DHT22;28550;51.228;4.528;2022-10-15T21:35:04;13.30;61.30
42905;DHT22;28550;51.228;4.528;2022-10-15T21:37:38;13.30;57.00
42905;DHT22;28550;51.228;4.528;2022-10-15T21:40:14;13.30;58.60
42905;DHT22;28550;51.228;4.528;2022-10-15T21:43:16;13.10;63.00
42905;DHT22;28550;51.228;4.528;2022-10-15T21:45:49;13.10;67.60
42905;DHT22;28550;51.228;4.528;2022-10-15T21:48:16;13.10;64.00
42905;DHT22;28550;51.228;4.528;2022-10-15T21:50:45;12.90;69.30
42905;DHT22;28550;51.228;4.528;2022-10-15T21:53:10;12.90;70.70
42905;DHT22;28550;51.228;4.528;2022-10-15T21:55:36;12.80;70.50
42905;DHT22;28550;51.228;4.528;2022-10-15T21:58:02;12.80;74.20
42905;DHT22;28550;51.228;4.528;2022-10-15T22:00:28;12.80;77.60
42905;DHT22;28550;51.228;4.528;2022-10-15T22:02:53;12.80;77.70
42905;DHT22;28550;51.228;4.528;2022-10-15T22:05:19;12.70;77.80
42905;DHT22;28550;51.228;4.528;2022-10-15T22:07:44;12.70;77.50
42905;DHT22;28550;51.228;4.528;2022-10-15T22:10:10;12.70;77.30
42905;DHT22;28550;51.228;4.528;2022-10-15T22:12:36;12.80;79.10
42905;DHT22;28550;51.228;4.528;2022-10-15T22:15:02;12.80;80.70
42905;DHT22;28550;51.228;4.528;2022-10-15T22:17:27;12.80;80.40
42905;DHT22;28550;51.228;4.528;2022-10-15T22:19:53;12.80;81.20
42905;DHT22;28550;51.228;4.528;2022-10-15T22:22:18;12.80;83.30
42905;DHT22;28550;51.228;4.528;2022-10-15T22:24:44;12.70;82.60
42905;DHT22;28550;51.228;4.528;2022-10-15T22:27:10;12.70;83.10
42905;DHT22;28550;51.228;4.528;2022-10-15T22:29:40;12.80;82.80
42905;DHT22;28550;51.228;4.528;2022-10-15T22:32:05;12.80;87.10
42905;DHT22;28550;51.228;4.528;2022-10-15T22:34:31;12.80;85.90
42905;DHT22;28550;51.228;4.528;2022-10-15T22:36:57;12.90;84.70
42905;DHT22;28550;51.228;4.528;2022-10-15T22:39:22;12.90;83.10
42905;DHT22;28550;51.228;4.528;2022-10-15T22:41:48;12.90;83.70
42905;DHT22;28550;51.228;4.528;2022-10-15T22:44:16;12.90;84.70
42905;DHT22;28550;51.228;4.528;2022-10-15T22:46:45;12.90;87.30
42905;DHT22;28550;51.228;4.528;2022-10-15T22:49:12;12.90;86.40
42905;DHT22;28550;51.228;4.528;2022-10-15T22:51:38;13.00;87.20
42905;DHT22;28550;51.228;4.528;2022-10-15T22:54:03;13.10;83.90
42905;DHT22;28550;51.228;4.528;2022-10-15T22:56:29;13.10;81.70
42905;DHT22;28550;51.228;4.528;2022-10-15T22:58:55;13.20;82.20
42905;DHT22;28550;51.228;4.528;2022-10-15T23:01:24;13.20;82.40
42905;DHT22;28550;51.228;4.528;2022-10-15T23:03:50;13.10;84.40
42905;DHT22;28550;51.228;4.528;2022-10-15T23:06:17;13.10;83.40
42905;DHT22;28550;51.228;4.528;2022-10-15T23:08:42;13.10;84.40
42905;DHT22;28550;51.228;4.528;2022-10-15T23:11:10;13.10;83.90
42905;DHT22;28550;51.228;4.528;2022-10-15T23:13:36;13.20;86.00
42905;DHT22;28550;51.228;4.528;2022-10-15T23:16:17;13.10;84.60
42905;DHT22;28550;51.228;4.528;2022-10-15T23:18:43;13.20;83.70
42905;DHT22;28550;51.228;4.528;2022-10-15T23:21:13;13.20;84.20
42905;DHT22;28550;51.228;4.528;2022-10-15T23:23:40;13.20;83.60
42905;DHT22;28550;51.228;4.528;2022-10-15T23:26:11;13.20;83.50
42905;DHT22;28550;51.228;4.528;2022-10-15T23:28:38;13.30;85.20
42905;DHT22;28550;51.228;4.528;2022-10-15T23:31:03;13.40;80.80
42905;DHT22;28550;51.228;4.528;2022-10-15T23:33:29;13.40;74.80
42905;DHT22;28550;51.228;4.528;2022-10-15T23:35:58;13.50;73.80
42905;DHT22;28550;51.228;4.528;2022-10-15T23:38:24;13.50;78.30
42905;DHT22;28550;51.228;4.528;2022-10-15T23:40:49;13.40;75.30
42905;DHT22;28550;51.228;4.528;2022-10-15T23:43:16;13.40;75.40
42905;DHT22;28550;51.228;4.528;2022-10-15T23:45:41;13.50;74.10
42905;DHT22;28550;51.228;4.528;2022-10-15T23:48:08;13.30;75.50
42905;DHT22;28550;51.228;4.528;2022-10-15T23:50:35;13.30;81.70
42905;DHT22;28550;51.228;4.528;2022-10-15T23:53:00;13.50;80.40
42905;DHT22;28550;51.228;4.528;2022-10-15T23:55:27;13.70;69.30